createdAt,value
2018-09-22T00:01:31.318Z,2.07
2018-09-22T00:04:00.397Z,1.87
2018-09-22T00:06:29.486Z,1.80
2018-09-22T00:08:58.592Z,2.13
2018-09-22T00:11:28.296Z,1.50
2018-09-22T00:13:57.515Z,1.80
2018-09-22T00:16:26.762Z,2.20
2018-09-22T00:21:48.968Z,2.40
2018-09-22T00:24:18.136Z,2.00
2018-09-22T00:26:47.414Z,2.10
2018-09-22T00:29:16.546Z,1.70
2018-09-22T00:31:45.663Z,2.70
2018-09-22T00:34:14.794Z,2.10
2018-09-22T00:36:43.926Z,1.80
2018-09-22T00:39:12.987Z,2.00
2018-09-22T00:41:42.068Z,1.80
2018-09-22T00:44:11.271Z,2.47
2018-09-22T00:46:40.398Z,2.20
2018-09-22T00:49:09.640Z,1.97
2018-09-22T00:51:38.710Z,1.70
2018-09-22T00:54:07.801Z,2.07
2018-09-22T00:56:36.953Z,2.00
2018-09-22T00:59:06.379Z,2.03
2018-09-22T01:01:35.597Z,1.80
2018-09-22T01:04:04.661Z,2.00
2018-09-22T01:06:33.782Z,1.70
2018-09-22T01:09:03.316Z,2.17
2018-09-22T01:11:32.434Z,2.00
2018-09-22T01:14:01.569Z,1.70
2018-09-22T01:16:30.634Z,1.80
2018-09-22T01:18:59.730Z,2.40
2018-09-22T01:21:28.808Z,1.50
2018-09-22T01:23:57.876Z,1.90
2018-09-22T01:26:27.798Z,2.33
2018-09-22T01:28:56.894Z,2.00
2018-09-22T01:31:25.967Z,1.97
2018-09-22T01:33:55.054Z,1.93
2018-09-22T01:36:24.148Z,2.00
2018-09-22T01:38:53.223Z,2.13
2018-09-22T01:41:22.293Z,1.90
2018-09-22T01:43:51.371Z,1.70
2018-09-22T01:46:20.471Z,1.83
2018-09-22T01:48:49.931Z,2.73
2018-09-22T01:51:18.992Z,1.80
2018-09-22T01:53:48.112Z,1.87
2018-09-22T01:56:17.149Z,2.20
2018-09-22T01:58:46.242Z,1.93
2018-09-22T02:01:15.308Z,2.27
2018-09-22T02:03:44.830Z,1.63
2018-09-22T02:06:13.923Z,2.00
2018-09-22T02:08:43.006Z,2.10
2018-09-22T02:11:12.104Z,2.03
2018-09-22T02:13:41.157Z,1.70
2018-09-22T02:16:10.811Z,1.93
2018-09-22T02:18:39.899Z,2.00
2018-09-22T02:21:09.058Z,2.10
2018-09-22T02:23:38.334Z,1.90
2018-09-22T02:26:07.415Z,1.63
2018-09-22T02:28:36.507Z,1.97
2018-09-22T02:31:06.242Z,1.80
2018-09-22T02:33:35.316Z,2.40
2018-09-22T02:36:04.402Z,1.73
2018-09-22T02:38:33.514Z,2.13
2018-09-22T02:41:02.605Z,1.97
2018-09-22T02:43:31.684Z,2.13
2018-09-22T02:46:00.740Z,2.40
2018-09-22T02:48:29.916Z,2.30
2018-09-22T02:50:59.010Z,2.40
2018-09-22T02:53:28.081Z,2.40
2018-09-22T02:55:57.138Z,2.00
2018-09-22T02:58:26.257Z,2.10
2018-09-22T03:00:55.324Z,2.00
2018-09-22T03:03:24.384Z,2.07
2018-09-22T03:05:53.966Z,2.13
2018-09-22T03:08:23.036Z,1.97
2018-09-22T03:10:52.116Z,2.07
2018-09-22T03:13:21.200Z,2.47
2018-09-22T03:15:50.274Z,2.10
2018-09-22T03:18:19.374Z,2.10
2018-09-22T03:20:48.486Z,2.17
2018-09-22T03:23:17.563Z,2.40
2018-09-22T03:25:46.694Z,2.60
2018-09-22T03:28:15.802Z,2.23
2018-09-22T03:30:44.885Z,2.47
2018-09-22T03:33:14.006Z,2.10
2018-09-22T03:35:43.070Z,2.50
2018-09-22T03:38:12.134Z,2.53
2018-09-22T03:40:41.256Z,2.63
2018-09-22T03:43:10.336Z,2.90
2018-09-22T03:45:39.458Z,3.03
2018-09-22T03:48:08.548Z,2.70
2018-09-22T03:50:37.624Z,2.73
2018-09-22T03:53:06.774Z,2.70
2018-09-22T03:55:35.838Z,2.70
2018-09-22T03:58:04.943Z,2.93
2018-09-22T04:00:34.005Z,2.63
2018-09-22T04:03:03.080Z,2.80
2018-09-22T04:05:32.531Z,3.13
2018-09-22T04:08:02.327Z,2.47
2018-09-22T04:10:31.417Z,2.40
2018-09-22T04:13:00.484Z,2.50
2018-09-22T04:15:29.614Z,2.87
2018-09-22T04:17:58.758Z,3.07
2018-09-22T04:20:27.878Z,3.37
2018-09-22T04:22:56.990Z,2.63
2018-09-22T04:25:26.064Z,3.17
2018-09-22T04:27:55.150Z,2.63
2018-09-22T04:30:25.192Z,2.37
2018-09-22T04:32:54.258Z,2.73
2018-09-22T04:35:23.312Z,2.50
2018-09-22T04:37:52.488Z,2.97
2018-09-22T04:40:21.632Z,3.10
2018-09-22T04:42:51.066Z,2.67
2018-09-22T04:45:20.179Z,2.50
2018-09-22T04:47:49.364Z,2.83
2018-09-22T04:50:18.442Z,3.20
2018-09-22T04:52:48.646Z,2.63
2018-09-22T04:55:18.506Z,2.90
2018-09-22T04:57:47.630Z,2.57
2018-09-22T05:00:16.764Z,2.50
2018-09-22T05:02:45.883Z,2.60
2018-09-22T05:05:14.972Z,2.47
2018-09-22T05:07:44.036Z,2.13
2018-09-22T05:10:13.428Z,2.93
2018-09-22T05:12:42.512Z,2.43
2018-09-22T05:15:11.624Z,3.13
2018-09-22T05:17:40.791Z,2.57
2018-09-22T05:20:09.832Z,2.53
2018-09-22T05:22:38.968Z,2.60
2018-09-22T05:25:08.129Z,2.93
2018-09-22T05:27:37.203Z,2.70
2018-09-22T05:30:06.348Z,2.17
2018-09-22T05:32:36.366Z,2.67
2018-09-22T05:35:05.481Z,3.00
2018-09-22T05:37:34.982Z,2.50
2018-09-22T05:40:04.908Z,2.30
2018-09-22T05:42:36.017Z,3.00
2018-09-22T05:45:05.623Z,2.37
2018-09-22T05:47:34.736Z,2.57
2018-09-22T05:50:03.900Z,2.27
2018-09-22T05:52:33.204Z,2.20
2018-09-22T05:55:03.044Z,2.63
2018-09-22T05:57:32.136Z,2.47
2018-09-22T06:00:01.265Z,2.37
2018-09-22T06:02:30.347Z,2.47
2018-09-22T06:04:59.434Z,2.50
2018-09-22T06:07:28.506Z,2.97
2018-09-22T06:09:57.598Z,3.03
2018-09-22T06:12:27.138Z,2.93
2018-09-22T06:14:56.363Z,2.63
2018-09-22T06:17:25.446Z,2.90
2018-09-22T06:19:55.063Z,2.93
2018-09-22T06:22:24.152Z,3.10
2018-09-22T06:24:53.239Z,3.07
2018-09-22T06:27:22.370Z,3.20
2018-09-22T06:29:51.432Z,2.90
2018-09-22T06:32:20.514Z,2.80
2018-09-22T06:34:49.563Z,3.33
2018-09-22T06:37:18.693Z,3.73
2018-09-22T06:39:47.725Z,3.03
2018-09-22T06:42:16.835Z,3.20
2018-09-22T06:44:45.886Z,3.20
2018-09-22T06:47:14.985Z,3.10
2018-09-22T06:49:44.073Z,2.90
2018-09-22T06:52:13.127Z,3.10
2018-09-22T06:54:42.206Z,2.90
2018-09-22T06:57:11.290Z,2.80
2018-09-22T06:59:40.361Z,2.77
2018-09-22T07:02:09.538Z,2.77
2018-09-22T07:04:39.106Z,2.90
2018-09-22T07:07:08.531Z,3.00
2018-09-22T07:09:37.654Z,2.90
2018-09-22T07:12:06.771Z,3.90
2018-09-22T07:14:35.963Z,3.13
2018-09-22T07:17:05.053Z,3.73
2018-09-22T07:19:34.463Z,4.27
2018-09-22T07:22:08.682Z,3.20
2018-09-22T07:24:37.753Z,3.87
2018-09-22T07:27:06.883Z,3.07
2018-09-22T07:29:36.003Z,3.17
2018-09-22T07:32:05.068Z,3.00
2018-09-22T07:34:34.155Z,2.90
2018-09-22T07:37:04.253Z,3.20
2018-09-22T07:39:33.356Z,3.47
2018-09-22T07:42:02.741Z,3.60
2018-09-22T07:44:31.785Z,3.60
2018-09-22T07:47:01.233Z,3.60
2018-09-22T07:49:30.303Z,3.57
2018-09-22T07:51:59.438Z,3.57
2018-09-22T07:54:28.476Z,3.80
2018-09-22T07:56:57.540Z,2.73
2018-09-22T07:59:26.801Z,3.17
2018-09-22T08:01:56.239Z,3.40
2018-09-22T08:04:25.473Z,2.80
2018-09-22T08:06:55.329Z,2.73
2018-09-22T08:09:24.535Z,3.00
2018-09-22T08:11:53.694Z,2.73
2018-09-22T08:14:22.879Z,3.13
2018-09-22T08:16:52.285Z,3.10
2018-09-22T08:19:21.905Z,3.07
2018-09-22T08:21:50.995Z,3.67
2018-09-22T08:24:20.125Z,2.93
2018-09-22T08:26:49.391Z,2.80
2018-09-22T08:29:18.598Z,2.73
2018-09-22T08:31:47.809Z,3.03
2018-09-22T08:34:17.046Z,2.83
2018-09-22T08:36:46.177Z,2.63
2018-09-22T08:39:15.137Z,2.80
2018-09-22T08:41:44.262Z,3.23
2018-09-22T08:44:13.314Z,2.80
2018-09-22T08:46:42.389Z,3.10
2018-09-22T08:49:11.502Z,3.30
2018-09-22T08:51:40.240Z,2.97
2018-09-22T08:54:09.239Z,2.83
2018-09-22T08:56:38.429Z,3.03
2018-09-22T08:59:07.527Z,2.50
2018-09-22T09:01:36.620Z,3.20
2018-09-22T09:04:05.775Z,3.00
2018-09-22T09:06:35.626Z,2.80
2018-09-22T09:09:05.884Z,3.20
2018-09-22T09:11:35.517Z,2.33
2018-09-22T09:14:04.749Z,2.10
2018-09-22T09:16:33.818Z,2.70
2018-09-22T09:19:03.067Z,2.83
2018-09-22T09:21:32.144Z,3.63
2018-09-22T09:24:01.210Z,4.13
2018-09-22T09:26:30.339Z,8.00
2018-09-22T09:28:59.455Z,3.80
2018-09-22T09:31:28.541Z,3.00
2018-09-22T09:33:58.224Z,3.20
2018-09-22T09:36:27.309Z,3.10
2018-09-22T09:38:59.203Z,2.50
2018-09-22T09:41:28.320Z,2.83
2018-09-22T09:43:57.431Z,4.20
2018-09-22T09:46:26.573Z,3.27
2018-09-22T09:48:55.638Z,3.40
2018-09-22T09:51:24.708Z,2.90
2018-09-22T09:53:53.787Z,2.80
2018-09-22T09:56:22.847Z,2.60
2018-09-22T09:58:51.959Z,2.43
2018-09-22T10:01:21.057Z,2.40
2018-09-22T10:03:50.091Z,2.63
2018-09-22T10:06:19.202Z,2.63
2018-09-22T10:08:48.293Z,2.23
2018-09-22T10:11:17.356Z,2.33
2018-09-22T10:13:46.448Z,2.10
2018-09-22T10:16:15.533Z,2.03
2018-09-22T10:18:44.603Z,2.20
2018-09-22T10:21:13.879Z,2.10
2018-09-22T10:23:43.041Z,2.10
2018-09-22T10:26:12.136Z,2.17
2018-09-22T10:28:41.252Z,2.47
2018-09-22T10:31:10.306Z,2.20
2018-09-22T10:33:39.989Z,2.23
2018-09-22T10:36:09.062Z,2.00
2018-09-22T10:38:38.119Z,2.57
2018-09-22T10:41:07.246Z,2.03
2018-09-22T10:43:36.985Z,2.40
2018-09-22T10:46:06.115Z,2.13
2018-09-22T10:48:35.237Z,2.10
2018-09-22T10:51:04.450Z,2.53
2018-09-22T10:53:33.552Z,2.27
2018-09-22T10:56:03.602Z,2.27
2018-09-22T10:58:32.713Z,2.03
2018-09-22T11:01:01.833Z,2.77
2018-09-22T11:03:30.885Z,1.90
2018-09-22T11:06:00.030Z,2.40
2018-09-22T11:08:29.217Z,2.67
2018-09-22T11:10:58.326Z,3.60
2018-09-22T11:13:27.425Z,4.40
2018-09-22T11:15:56.515Z,3.90
2018-09-22T11:18:25.729Z,4.23
2018-09-22T11:20:54.824Z,4.00
2018-09-22T11:23:24.001Z,3.57
2018-09-22T11:25:53.183Z,3.23
2018-09-22T11:28:22.431Z,2.50
2018-09-22T11:30:51.609Z,2.40
2018-09-22T11:33:20.725Z,2.50
2018-09-22T11:35:49.833Z,1.90
2018-09-22T11:38:19.027Z,2.73
2018-09-22T11:40:48.081Z,1.70
2018-09-22T11:43:17.223Z,2.00
2018-09-22T11:45:46.270Z,1.97
2018-09-22T11:48:15.341Z,2.10
2018-09-22T11:50:44.454Z,2.00
2018-09-22T11:53:13.490Z,2.77
2018-09-22T11:55:42.554Z,2.10
2018-09-22T11:58:11.657Z,2.53
2018-09-22T12:00:40.705Z,2.10
2018-09-22T12:03:09.778Z,2.20
2018-09-22T12:05:38.854Z,2.50
2018-09-22T12:08:07.954Z,2.40
2018-09-22T12:10:37.083Z,2.50
2018-09-22T12:13:06.315Z,1.87
2018-09-22T12:15:35.377Z,2.40
2018-09-22T12:18:04.501Z,1.70
2018-09-22T12:20:33.602Z,2.27
2018-09-22T12:23:02.694Z,2.10
2018-09-22T12:25:32.038Z,2.10
2018-09-22T12:28:01.148Z,2.03
2018-09-22T12:30:30.241Z,2.63
2018-09-22T12:32:59.286Z,2.30
2018-09-22T12:35:28.515Z,2.20
2018-09-22T12:37:57.613Z,2.37
2018-09-22T12:40:26.690Z,1.87
2018-09-22T12:42:55.960Z,2.30
2018-09-22T12:45:25.139Z,2.10
2018-09-22T12:47:54.226Z,2.10
2018-09-22T12:50:23.293Z,2.03
2018-09-22T12:52:52.390Z,2.10
2018-09-22T12:55:21.469Z,2.13
2018-09-22T12:57:51.595Z,1.97
2018-09-22T13:00:20.677Z,2.20
2018-09-22T13:02:49.801Z,2.30
2018-09-22T13:05:18.892Z,2.17
2018-09-22T13:07:48.413Z,2.07
2018-09-22T13:10:18.122Z,2.40
2018-09-22T13:12:47.269Z,2.00
2018-09-22T13:15:16.360Z,2.13
2018-09-22T13:17:45.465Z,2.07
2018-09-22T13:20:14.580Z,1.90
2018-09-22T13:22:43.619Z,2.40
2018-09-22T13:25:12.689Z,1.87
2018-09-22T13:27:42.043Z,2.07
2018-09-22T13:30:11.125Z,2.37
2018-09-22T13:32:40.231Z,2.40
2018-09-22T13:35:09.402Z,2.10
2018-09-22T13:37:38.494Z,2.30
2018-09-22T13:40:07.653Z,2.07
2018-09-22T13:42:36.733Z,2.20
2018-09-22T13:45:05.914Z,1.70
2018-09-22T13:47:35.050Z,2.13
2018-09-22T13:50:04.210Z,2.20
2018-09-22T13:52:33.345Z,2.27
2018-09-22T13:55:02.485Z,2.03
2018-09-22T13:57:31.567Z,2.00
2018-09-22T14:00:00.688Z,1.80
2018-09-22T14:02:29.812Z,2.07
2018-09-22T14:04:58.891Z,2.40
2018-09-22T14:07:27.995Z,2.03
2018-09-22T14:09:57.111Z,1.97
2018-09-22T14:12:26.215Z,1.87
2018-09-22T14:14:55.525Z,2.13
2018-09-22T14:17:24.577Z,1.60
2018-09-22T14:19:53.657Z,2.20
2018-09-22T14:22:22.792Z,2.40
2018-09-22T14:24:51.922Z,2.10
2018-09-22T14:27:21.025Z,1.70
2018-09-22T14:29:50.298Z,2.00
2018-09-22T14:32:19.379Z,2.23
2018-09-22T14:34:49.657Z,1.83
2018-09-22T14:37:18.845Z,2.00
2018-09-22T14:39:47.925Z,1.80
2018-09-22T14:42:17.000Z,2.13
2018-09-22T14:44:46.095Z,1.87
2018-09-22T14:47:15.178Z,2.03
2018-09-22T14:49:44.433Z,1.90
2018-09-22T14:52:13.498Z,2.20
2018-09-22T14:54:42.572Z,2.00
2018-09-22T14:57:12.101Z,1.87
2018-09-22T14:59:41.377Z,1.77
2018-09-22T15:02:10.482Z,2.63
2018-09-22T15:04:39.636Z,2.13
2018-09-22T15:07:08.804Z,2.10
2018-09-22T15:09:38.004Z,1.50
2018-09-22T15:12:07.186Z,2.13
2018-09-22T15:14:36.598Z,2.37
2018-09-22T15:17:05.738Z,2.23
2018-09-22T15:19:35.336Z,1.90
2018-09-22T15:22:04.652Z,2.10
2018-09-22T15:24:33.802Z,2.27
2018-09-22T15:27:02.958Z,2.47
2018-09-22T15:29:32.178Z,1.80
2018-09-22T15:32:01.821Z,1.80
2018-09-22T15:34:30.943Z,2.10
2018-09-22T15:37:00.090Z,2.23
2018-09-22T15:39:29.156Z,2.07
2018-09-22T15:41:58.299Z,2.70
2018-09-22T15:44:27.438Z,2.60
2018-09-22T15:46:56.491Z,1.97
2018-09-22T15:49:25.618Z,2.23
2018-09-22T15:51:54.706Z,2.23
2018-09-22T15:54:24.526Z,2.30
2018-09-22T15:56:53.631Z,2.37
2018-09-22T15:59:22.759Z,2.30
2018-09-22T16:01:52.794Z,2.10
2018-09-22T16:04:21.888Z,2.37
2018-09-22T16:06:50.967Z,2.23
2018-09-22T16:09:20.088Z,2.30
2018-09-22T16:11:49.170Z,2.37
2018-09-22T16:14:18.268Z,2.50
2018-09-22T16:16:47.363Z,2.23
2018-09-22T16:19:16.460Z,2.10
2018-09-22T16:21:45.576Z,2.30
2018-09-22T16:24:14.655Z,2.33
2018-09-22T16:26:43.748Z,2.30
2018-09-22T16:29:12.848Z,2.30
2018-09-22T16:31:41.934Z,1.97
2018-09-22T16:34:12.094Z,2.20
2018-09-22T16:36:41.176Z,2.33
2018-09-22T16:39:11.336Z,2.20
2018-09-22T16:41:40.733Z,2.13
2018-09-22T16:44:09.790Z,2.37
2018-09-22T16:46:38.978Z,2.53
2018-09-22T16:49:08.258Z,2.50
2018-09-22T16:51:37.969Z,2.00
2018-09-22T16:54:07.086Z,2.33
2018-09-22T16:56:36.219Z,2.00
2018-09-22T16:59:05.340Z,1.87
2018-09-22T17:01:34.502Z,3.20
2018-09-22T17:04:03.628Z,2.40
2018-09-22T17:06:32.662Z,2.43
2018-09-22T17:09:01.823Z,3.50
2018-09-22T17:11:30.902Z,2.13
2018-09-22T17:14:00.026Z,2.20
2018-09-22T17:16:29.142Z,2.73
2018-09-22T17:18:59.291Z,2.00
2018-09-22T17:21:29.021Z,2.10
2018-09-22T17:23:58.099Z,2.40
2018-09-22T17:26:27.189Z,2.10
2018-09-22T17:28:56.313Z,1.97
2018-09-22T17:31:25.480Z,2.10
2018-09-22T17:33:54.573Z,2.23
2018-09-22T17:36:24.170Z,2.20
2018-09-22T17:38:53.284Z,2.17
2018-09-22T17:41:22.514Z,2.90
2018-09-22T17:43:51.584Z,2.70
2018-09-22T17:46:20.696Z,2.20
2018-09-22T17:48:49.847Z,2.63
2018-09-22T17:51:18.916Z,2.77
2018-09-22T17:53:48.768Z,2.47
2018-09-22T17:56:17.952Z,2.10
2018-09-22T17:58:47.024Z,2.50
2018-09-22T18:01:16.100Z,2.80
2018-09-22T18:03:45.779Z,3.37
2018-09-22T18:06:15.278Z,3.00
2018-09-22T18:08:44.411Z,2.50
2018-09-22T18:11:14.317Z,2.60
2018-09-22T18:13:43.679Z,2.40
2018-09-22T18:16:13.004Z,3.07
2018-09-22T18:18:42.089Z,2.70
2018-09-22T18:21:11.251Z,2.70
2018-09-22T18:23:40.368Z,2.63
2018-09-22T18:26:09.618Z,2.00
2018-09-22T18:28:38.682Z,2.20
2018-09-22T18:31:07.840Z,3.00
2018-09-22T18:33:36.927Z,2.47
2018-09-22T18:36:05.984Z,2.00
2018-09-22T18:38:35.625Z,2.50
2018-09-22T18:41:04.733Z,2.63
2018-09-22T18:43:33.833Z,2.33
2018-09-22T18:46:02.958Z,2.80
2018-09-22T18:48:32.565Z,2.60
2018-09-22T18:51:01.639Z,2.50
2018-09-22T18:53:30.710Z,2.13
2018-09-22T18:56:00.076Z,2.20
2018-09-22T18:58:29.139Z,2.47
2018-09-22T19:00:58.226Z,2.27
2018-09-22T19:03:27.299Z,2.30
2018-09-22T19:05:56.417Z,2.10
2018-09-22T19:08:25.502Z,2.50
2018-09-22T19:10:54.583Z,2.30
2018-09-22T19:13:28.498Z,2.33
2018-09-22T19:16:01.104Z,2.40
2018-09-22T19:18:35.551Z,2.23
2018-09-22T19:21:09.711Z,2.30
2018-09-22T19:23:42.045Z,2.50
2018-09-22T19:26:16.814Z,3.00
2018-09-22T19:28:49.672Z,2.70
2018-09-22T19:31:24.020Z,3.77
2018-09-22T19:33:57.703Z,3.00
2018-09-22T19:36:33.666Z,2.80
2018-09-22T19:39:09.243Z,2.60
2018-09-22T19:41:44.860Z,2.30
2018-09-22T19:44:19.878Z,2.30
2018-09-22T19:46:54.631Z,2.17
2018-09-22T19:49:27.187Z,2.87
2018-09-22T19:52:04.280Z,2.23
2018-09-22T19:54:33.391Z,2.10
2018-09-22T19:57:02.508Z,2.30
2018-09-22T19:59:31.750Z,2.20
2018-09-22T20:02:01.034Z,2.23
2018-09-22T20:04:30.197Z,2.27
2018-09-22T20:06:59.330Z,2.10
2018-09-22T20:09:28.441Z,2.30
2018-09-22T20:11:57.553Z,2.77
2018-09-22T20:14:27.252Z,2.30
2018-09-22T20:16:56.352Z,2.80
2018-09-22T20:19:25.548Z,2.60
2018-09-22T20:21:54.735Z,2.37
2018-09-22T20:24:23.822Z,3.00
2018-09-22T20:26:53.074Z,3.67
2018-09-22T20:29:22.136Z,3.83
2018-09-22T20:31:51.682Z,6.80
2018-09-22T20:34:20.866Z,3.77
2018-09-22T20:36:50.014Z,3.97
2018-09-22T20:39:19.446Z,3.37
2018-09-22T20:41:48.533Z,2.57
2018-09-22T20:44:18.371Z,3.50
2018-09-22T20:46:47.994Z,2.63
2018-09-22T20:49:17.182Z,2.40
2018-09-22T20:51:46.358Z,2.40
2018-09-22T20:54:16.255Z,2.43
2018-09-22T20:56:45.383Z,2.10
2018-09-22T20:59:15.337Z,2.50
2018-09-22T21:01:44.498Z,2.17
2018-09-22T21:04:13.632Z,2.43
2018-09-22T21:06:43.022Z,2.33
2018-09-22T21:09:12.260Z,2.90
2018-09-22T21:11:41.390Z,2.33
2018-09-22T21:14:10.578Z,2.17
2018-09-22T21:16:39.774Z,2.83
2018-09-22T21:19:08.909Z,2.47
2018-09-22T21:21:39.029Z,2.40
2018-09-22T21:24:08.162Z,2.27
2018-09-22T21:26:37.365Z,2.53
2018-09-22T21:29:07.312Z,2.50
2018-09-22T21:31:36.550Z,2.43
2018-09-22T21:34:05.698Z,2.70
2018-09-22T21:36:34.934Z,2.60
2018-09-22T21:39:05.064Z,2.33
2018-09-22T21:41:34.375Z,2.40
2018-09-22T21:44:03.538Z,2.43
2018-09-22T21:46:32.658Z,2.53
2018-09-22T21:49:01.796Z,2.60
2018-09-22T21:51:30.891Z,2.43
2018-09-22T21:53:59.951Z,3.00
2018-09-22T21:56:29.102Z,2.30
2018-09-22T21:58:58.242Z,3.43
2018-09-22T22:01:32.645Z,2.60
2018-09-22T22:04:01.811Z,2.50
2018-09-22T22:06:30.934Z,2.77
2018-09-22T22:09:00.048Z,2.50
2018-09-22T22:11:29.456Z,2.87
2018-09-22T22:13:58.539Z,2.33
2018-09-22T22:16:27.640Z,2.87
2018-09-22T22:18:56.817Z,2.40
2018-09-22T22:21:26.042Z,2.67
2018-09-22T22:23:55.345Z,2.10
2018-09-22T22:26:25.202Z,2.03
2018-09-22T22:28:54.720Z,2.60
2018-09-22T22:31:23.910Z,3.70
2018-09-22T22:33:53.318Z,2.73
2018-09-22T22:36:22.855Z,2.67
2018-09-22T22:38:51.919Z,2.20
2018-09-22T22:41:21.084Z,2.90
2018-09-22T22:43:50.562Z,3.50
2018-09-22T22:46:19.638Z,3.00
2018-09-22T22:48:48.804Z,2.70
2018-09-22T22:51:17.951Z,3.10
2018-09-22T22:53:47.586Z,2.60
2018-09-22T22:56:16.732Z,2.70
2018-09-22T22:58:45.918Z,2.60
2018-09-22T23:01:15.021Z,2.70
2018-09-22T23:03:44.082Z,2.87
2018-09-22T23:06:13.279Z,2.63
2018-09-22T23:08:42.365Z,2.53
2018-09-22T23:11:11.533Z,2.80
2018-09-22T23:13:40.722Z,3.10
2018-09-22T23:16:09.912Z,3.03
2018-09-22T23:18:39.044Z,3.27
2018-09-22T23:21:08.967Z,3.27
2018-09-22T23:23:38.557Z,3.40
2018-09-22T23:26:07.792Z,2.80
2018-09-22T23:28:36.922Z,2.83
2018-09-22T23:31:06.168Z,2.47
2018-09-22T23:33:35.411Z,2.80
2018-09-22T23:36:04.607Z,2.33
2018-09-22T23:38:34.180Z,3.00
2018-09-22T23:41:03.304Z,2.60
2018-09-22T23:43:32.512Z,2.90
2018-09-22T23:46:02.151Z,2.70
2018-09-22T23:48:31.282Z,2.90
2018-09-22T23:51:00.470Z,3.10
2018-09-22T23:53:30.381Z,2.83
2018-09-22T23:56:00.253Z,2.47
2018-09-22T23:58:29.534Z,2.80
